x

Neah Bay, - 6nm North Of Cape Flattery, Wa (traffic Separation Lighted Buoy) (46087) Wave Buoy

12:50am - Tue 28th Jun 2016 All times are PDT. -7 hours from GMT.

  • Sig Wave height 5.2ft
  • Swell Direction
  • Peak Period 8s
  • Average Period 7s
  • Wind
    4mph
  • Sea Temp 53°f
  • Air Temp 54°f
  • Sea Pressure 1022.8mb
  • Neah Bay, - 6nm North Of Cape Flattery, Wa     (traffic Separation Lighted Buoy)
  • Neah Bay, - 6nm North Of Cape Flattery, Wa     (traffic Separation Lighted Buoy)

More Historic Weather Station data

Upgrade to MSW Pro to gain access to the past 30 days of data for over 8000 Wavebouys and Weather Stations around the globe.

Join Pro

Comparision Forecast

View Surf forecast
   
Tue 06/28 12:50am 5ft 8s 7s 4
mph
1022.8mb 53f 54f
12:20am 5.5ft 7s 7s 4
mph
1022.9mb 53f 55f
Mon 06/27 11:50pm 5.5ft 8s 7s 7 9 mph 1022.9mb 53f 55f
11:20pm 5ft 8s 6s 4 7 mph 1022.8mb 53f 55f
10:50pm 5.5ft 8s 6s 4 7 mph 1023mb 53f 55f
10:20pm 5.5ft 8s 7s 4 7 mph 1022.8mb 54f 56f
9:50pm 5.5ft 8s 7s 4 7 mph 1022.8mb 54f 55f
9:20pm 6ft 8s 7s 7 9 mph 1022.6mb 54f 55f
8:50pm 6ft 7s 6s 7 9 mph 1022.5mb 54f 55f
8:20pm 6ft 8s 6s 7 9 mph 1022.5mb 54f 55f
7:50pm 6ft 7s 6s 9 11 mph 1022.4mb 54f 55f
7:20pm 6ft 8s 6s 7 9 mph 1022.2mb 54f 55f
6:50pm 6ft 7s 7s 9
mph
1022.1mb 54f 55f
6:20pm 6ft 8s 6s 9 11 mph 1022.2mb 54f 55f
5:50pm 6ft 9s 7s 9 11 mph 1022.3mb 54f 55f
5:20pm 6ft 9s 7s 9 11 mph 1022.3mb 54f 55f
4:50pm 6.5ft 8s 7s 9
mph
1022.5mb 54f 55f
4:20pm 6ft 8s 7s 9
mph
1022.6mb 54f 55f
3:50pm 6ft 9s 7s 9
mph
1022.6mb 54f 55f
3:20pm 6.5ft 10s 7s 7 9 mph 1022.7mb 54f 55f
2:50pm 5.5ft 10s 7s 7 9 mph 1022.7mb 54f 55f
2:20pm 6ft 10s 7s 9
mph
1022.8mb 54f 55f
1:50pm 5.5ft 10s 7s 7 9 mph 1022.7mb 53f 55f
1:20pm 6ft 10s 7s 9 11 mph 1022.6mb 53f 55f
12:50pm 5.5ft 10s 7s 9 11 mph 1022.4mb 53f 55f
12:20pm 5.5ft 7s 7s 7 9 mph 1022.5mb 53f 54f
11:50am 5.5ft 7s 7s 9 11 mph 1022.3mb 53f 55f
11:20am 5ft 10s 7s 7 9 mph 1022.2mb 53f 55f
10:50am 5ft 6s 7s 7
mph
1022.2mb 53f 54f
10:20am 5ft 7s 6s 7 9 mph 1022mb 53f 54f
9:50am 5ft 7s 6s 9 11 mph 1021.8mb 53f 54f
9:20am 5ft 7s 6s 9 11 mph 1021.7mb 53f 54f
8:50am 5ft 10s 6s 9 11 mph 1021.6mb 53f 54f
8:20am 5ft 6s 6s 7
mph
1021.4mb 53f 54f
7:50am 4.5ft 6s 6s 7 9 mph 1021.4mb 53f 53f
7:20am 4.5ft 6s 6s 9 11 mph 1021.3mb 53f 53f
6:50am 4.5ft 10s 6s 9 11 mph 1021.1mb 53f 53f
6:20am 4.5ft 6s 6s 11 13 mph 1020.8mb 53f 53f
5:50am 4.5ft 6s 6s 13
mph
1020.5mb 53f 54f
5:20am 4.5ft 9s 6s 11 13 mph 1020.3mb 53f 54f
4:50am 4.5ft 11s 7s 9
mph
1020.3mb 53f 54f
4:20am 4.5ft 10s 7s 9 11 mph 1020.2mb 53f 54f
3:50am 4ft 11s 7s 9 11 mph 1020.1mb 53f 54f
3:20am 4ft 10s 7s 11 13 mph 1020.2mb 53f 55f
2:50am 4ft 10s 7s 11
mph
1020.2mb 53f 55f
2:20am 3.5ft 6s 6s 9 11 mph 1020.2mb 54f 55f
1:50am 3.5ft 6s 6s 9
mph
1020.2mb 55f 55f
1:20am 4ft 17s 6s 9 11 mph 1020.1mb 54f 55f
12:50am 3.5ft 6s 6s 7 9 mph 1020.1mb 54f 55f
12:20am 4ft 6s 6s 9 11 mph 1020.2mb 54f 56f
Sun 06/26 11:50pm 4ft 6s 6s 7 9 mph 1020.1mb 54f 56f
11:20pm 4ft 6s 6s 7
mph
1020.2mb 54f 56f
10:50pm 4.5ft 5s 6s 4 7 mph 1020.3mb 54f 56f
10:20pm 4ft 17s 6s 2 4 mph 1020.3mb 55f 56f
9:50pm 4.5ft 17s 6s 4
mph
1020.2mb 55f 57f
9:20pm 4ft 5s 5s 4 9 mph 1020.4mb 55f 57f
8:50pm 3.5ft 6s 5s 4 7 mph 1020.4mb 55f 58f
8:20pm 3.5ft 17s 5s 2 7 mph 1020.7mb 54f 58f
7:50pm 3.5ft 17s 5s 9 13 mph 1020.6mb 54f 58f
7:20pm 3.5ft 7s 5s 7 9 mph 1020.9mb 55f 58f
6:50pm 3.5ft 16s 6s 7 9 mph 1020.9mb 55f 57f
6:20pm 3.5ft 7s 6s 7 9 mph 1021.1mb 55f 57f
5:50pm 3.5ft 6s 6s 7
mph
1021.2mb 54f 56f
5:20pm 4ft 17s 6s 4 7 mph 1021.5mb 54f 56f
4:50pm 3.5ft 6s 6s 9
mph
1021.7mb 54f 55f
4:20pm 3.5ft 6s 6s 9 11 mph 1022mb 54f 55f
3:50pm 3.5ft 6s 6s 9 11 mph 1022.3mb 54f 55f
3:20pm 3.5ft 6s 6s 9 11 mph 1022.6mb 54f 55f
2:50pm 3.5ft 17s 6s 9 11 mph 1022.9mb 55f 55f
2:20pm 3.5ft 17s 6s 11
mph
1023.1mb 55f 55f
1:50pm 4ft 7s 7s 9
mph
1023.2mb 55f 56f
1:20pm 4ft 6s 7s 2 4 mph 1023.2mb 55f 57f
12:50pm 3.5ft 7s 6s 4 7 mph 1023.2mb 55f 56f
12:20pm 4ft 7s 7s 4 7 mph 1023.4mb 54f 55f
11:50am 3.5ft 7s 7s 7
mph
1023.5mb 54f 54f
11:20am 3.5ft 7s 7s 7 9 mph 1023.5mb 54f 53f
10:50am 4ft 7s 6s 7
mph
1023.6mb 54f 53f
10:20am 4.5ft 7s 6s 2 4 mph 1023.6mb 54f 52f
9:50am 4.5ft 7s 6s 2 4 mph 1023.9mb 54f 52f
9:20am 4ft 7s 6s 2
mph
1023.9mb 53f 52f
8:50am 4ft 19s 6s 4 7 mph 1023.7mb 53f 51f
8:20am 4ft 17s 6s 4 7 mph 1023.9mb 53f 50f
7:50am 4ft 7s 6s 4 7 mph 1024mb 53f 50f
7:20am 4ft 7s 6s 2 4 mph 1023.9mb 53f 50f
6:50am 4ft 7s 6s 2 4 mph 1023.8mb 53f 50f
6:20am 4ft 16s 6s 4 7 mph 1023.6mb 53f 50f
5:50am 3.5ft 16s 6s 2 4 mph 1023.5mb 53f 50f
5:20am 3.5ft 17s 6s 4 7 mph 1023.5mb 53f 50f
4:50am 4ft 17s 6s 2
mph
1023.4mb 53f 50f
4:20am 3.5ft 7s 6s 2
mph
1023.4mb 53f 51f
3:50am 3.5ft 8s 6s  -  mph 1023.3mb 53f 52f
3:20am 3.5ft 7s 6s  -  mph 1023.4mb 54f 52f
2:50am 3.5ft 8s 6s 2
mph
1023.5mb 54f 52f
2:20am 4ft 8s 6s 2 4 mph 1023.6mb 53f 53f
1:20am 3.5ft 7s 6s 7
mph
1023.7mb 53f 54f
12:50am 3.5ft 8s 6s 4 7 mph 1023.7mb 53f 54f
12:20am 3.5ft 17s 6s  -  2 mph 1023.8mb 53f 54f
Sat 06/25 11:50pm 3.5ft 7s 6s 4
mph
1023.7mb 54f 55f
11:20pm 4ft 8s 6s 4 7 mph 1023.8mb 54f 55f
10:50pm 3.5ft 17s 6s 7 9 mph 1023.9mb 54f 55f
10:20pm 3.5ft 19s 6s 7 9 mph 1023.8mb 54f 55f
9:50pm 3.5ft 17s 6s 9
mph
1023.7mb 54f 55f
9:20pm 3.5ft 7s 6s 9 11 mph 1023.6mb 54f 55f
8:50pm 3.5ft 7s 6s 9 11 mph 1023.6mb 53f 55f
8:20pm 3.5ft 7s 6s 9 11 mph 1023.6mb 53f 55f
7:50pm 3.5ft 19s 6s 11
mph
1023.6mb 53f 55f
7:20pm 3.5ft 7s 6s 9
mph
1023.9mb 53f 55f
6:50pm 3.5ft 7s 6s 9 11 mph 1024.1mb 53f 55f
6:20pm 4ft 6s 6s 11 13 mph 1024.2mb 54f 55f
5:50pm 4.5ft 7s 6s 11 13 mph 1024.5mb 54f 55f
5:20pm 4ft 7s 6s 11 13 mph 1024.7mb 54f 55f
4:50pm 4ft 7s 6s 11 13 mph 1024.9mb 54f 55f
3:50pm 4ft 7s 6s 11 13 mph 1025.3mb 54f 55f
2:50pm 4.5ft 8s 6s 9 11 mph 1025.7mb 54f 55f
2:20pm 3.5ft 7s 7s 7 9 mph 1025.9mb 54f 54f
1:50pm 4ft 7s 7s 7
mph
1026.1mb 53f 54f
1:20pm 3.5ft 8s 7s 4 7 mph 1026.1mb 53f 54f
12:50pm 3.5ft 7s 7s 7 9 mph 1026mb 53f 54f
12:20pm 3.5ft 7s 7s 7 9 mph 1026.1mb 53f 54f
11:50am 3.5ft 7s 7s 7 9 mph 1026mb 53f 54f
11:20am 3.5ft 8s 7s 4 7 mph 1026mb 53f 54f
10:50am 4.5ft 8s 7s 7 9 mph 1025.9mb 53f 53f
10:20am 4.5ft 8s 7s 4 7 mph 1025.9mb 52f 53f
9:50am 3.5ft 8s 7s 4
mph
1025.9mb 52f 53f
9:20am 3.5ft 8s 7s 2 4 mph 1025.9mb 52f 53f
8:50am 4ft 8s 7s 2
mph
1025.8mb 52f 53f
8:20am 4ft 8s 7s 2 4 mph 1025.7mb 52f 53f
7:50am 3.5ft 8s 6s 2
mph
1025.6mb 52f 52f
7:20am 4ft 8s 6s 2 4 mph 1025.6mb 52f 53f
6:50am 5ft 8s 7s 2
mph
1025.4mb 52f 53f
6:20am 4.5ft 8s 7s  -  2 mph 1025.3mb 52f 53f
5:50am 4.5ft 8s 7s 2
mph
1025.4mb 52f 53f
5:20am 4.5ft 8s 6s 2 4 mph 1025.6mb 52f 52f
4:50am 4.5ft 8s 6s 2
mph
1025.5mb 52f 53f
4:20am 4.5ft 8s 6s 2
mph
1025.4mb 52f 53f
3:50am 4.5ft 7s 7s  -  mph 1025.5mb 52f 53f
3:20am 4.5ft 8s 7s  -  2 mph 1025.5mb 53f 53f
2:50am 4.5ft 8s 7s 2 4 mph 1025.6mb 53f 53f
2:20am 4ft 8s 7s 2
mph
1025.7mb 53f 54f
1:50am 4ft 7s 7s 4 7 mph 1025.8mb 53f 53f
1:20am 4.5ft 8s 7s  -  2 mph 1025.9mb 53f 53f
12:50am 4.5ft 8s 7s  -  2 mph 1025.8mb 53f 53f
12:20am 4ft 8s 7s  -  2 mph 1025.8mb 53f 54f
Fri 06/24 11:50pm 4.5ft 8s 7s 2
mph
1025.8mb 53f 54f
11:20pm 4ft 8s 7s 2
mph
1025.9mb 53f 54f
10:50pm 4.5ft 7s 7s 4 7 mph 1026mb 54f 54f
10:20pm 4ft 8s 7s 4
mph
1025.9mb 53f 54f
9:50pm 4.5ft 8s 6s 4 7 mph 1025.8mb 53f 55f
9:20pm 4.5ft 8s 7s 2 4 mph 1025.6mb 53f 54f
8:50pm 4.5ft 8s 6s 4
mph
1025.5mb 53f 54f
8:20pm 4.5ft 7s 6s 4
mph
1025.5mb 53f 54f
7:50pm 4.5ft 8s 6s 4 7 mph 1025.5mb 53f 54f
7:20pm 4.5ft 7s 6s 7
mph
1025.2mb 53f 55f
6:50pm 4ft 7s 6s 4 7 mph 1025.1mb 53f 54f
6:20pm 4.5ft 7s 6s 7 9 mph 1025mb 53f 54f
5:50pm 4.5ft 7s 6s 9
mph
1025mb 53f 54f
5:20pm 4.5ft 8s 6s 7
mph
1024.9mb 52f 54f
4:50pm 4.5ft 6s 6s 7 9 mph 1024.9mb 52f 54f
4:20pm 4.5ft 7s 6s 7
mph
1024.8mb 52f 54f
3:50pm 4.5ft 7s 6s 7
mph
1024.9mb 52f 54f
3:20pm 4.5ft 7s 6s 4 7 mph 1024.8mb 52f 54f
2:50pm 4.5ft 8s 6s 9
mph
1024.5mb 52f 54f
2:20pm 4ft 8s 6s 9 11 mph 1024.2mb 52f 54f
1:50pm 4.5ft 6s 6s 9
mph
1023.8mb 52f 53f
1:20pm 4ft 8s 6s 7
mph
1023.6mb 52f 53f
12:50pm 4ft 6s 6s 9
mph
1023.2mb 53f 53f
12:20pm 3.5ft 6s 6s 9 11 mph 1022.9mb 53f 53f
11:50am 3.5ft 6s 6s 7 9 mph 1022.7mb 53f 54f
11:20am 3.5ft 6s 6s 7 9 mph 1022.4mb 53f 54f
10:50am 3.5ft 7s 6s 7 9 mph 1022.1mb 53f 54f
10:20am 3.5ft 7s 7s 7 9 mph 1021.7mb 53f 54f
9:50am 3.5ft 7s 7s 7
mph
1021.6mb 53f 53f
9:20am 4ft 7s 7s 4 7 mph 1021.4mb 53f 53f
8:50am 3.5ft 19s 6s 4
mph
1021.1mb 53f 53f